createdAt,value
2022-10-21T00:01:29.839Z,22.40
2022-10-21T00:03:58.407Z,23.03
2022-10-21T00:06:27.229Z,22.23
2022-10-21T00:08:55.969Z,19.63
2022-10-21T00:11:24.630Z,21.60
2022-10-21T00:13:54.659Z,22.53
2022-10-21T00:16:23.241Z,21.73
2022-10-21T00:18:51.851Z,21.50
2022-10-21T00:21:23.019Z,23.27
2022-10-21T00:23:51.698Z,21.67
2022-10-21T00:26:20.987Z,20.47
2022-10-21T00:28:49.725Z,21.73
2022-10-21T00:31:19.658Z,22.20
2022-10-21T00:33:48.247Z,20.00
2022-10-21T00:36:17.126Z,21.57
2022-10-21T00:38:48.286Z,22.70
2022-10-21T00:41:19.362Z,22.03
2022-10-21T00:43:56.056Z,23.30
2022-10-21T00:46:34.256Z,21.73
2022-10-21T00:49:06.424Z,22.50
2022-10-21T00:51:35.213Z,20.53
2022-10-21T00:54:05.350Z,22.93
2022-10-21T00:56:36.132Z,19.77
2022-10-21T00:59:06.382Z,21.40
2022-10-21T01:01:36.520Z,19.90
2022-10-21T01:04:06.027Z,19.93
2022-10-21T01:06:35.987Z,22.57
2022-10-21T01:09:06.624Z,19.27
2022-10-21T01:11:42.932Z,24.40
2022-10-21T01:14:27.889Z,19.77
2022-10-21T01:17:20.420Z,21.37
2022-10-21T01:20:32.649Z,22.23
2022-10-21T01:23:34.371Z,20.30
2022-10-21T01:26:39.119Z,21.03
2022-10-21T01:29:29.731Z,20.93
2022-10-21T01:32:08.120Z,19.07
2022-10-21T01:34:43.371Z,22.47
2022-10-21T01:37:17.133Z,18.63
2022-10-21T01:39:52.113Z,22.00
2022-10-21T01:42:29.113Z,22.17
2022-10-21T01:45:03.680Z,21.10
2022-10-21T01:47:37.563Z,22.67
2022-10-21T01:50:11.154Z,20.97
2022-10-21T01:52:42.419Z,22.43
2022-10-21T01:55:15.591Z,20.47
2022-10-21T01:57:49.023Z,16.77
2022-10-21T02:00:18.074Z,20.30
2022-10-21T02:02:50.443Z,18.77
2022-10-21T02:05:21.699Z,21.60
2022-10-21T02:07:50.785Z,20.83
2022-10-21T02:10:20.966Z,20.97
2022-10-21T02:12:51.753Z,21.10
2022-10-21T02:15:22.634Z,21.07
2022-10-21T02:17:58.252Z,19.17
2022-10-21T02:20:29.262Z,18.83
2022-10-21T02:22:58.111Z,20.87
2022-10-21T02:25:30.225Z,21.20
2022-10-21T02:27:59.046Z,21.63
2022-10-21T02:30:31.446Z,19.03
2022-10-21T02:33:07.832Z,18.87
2022-10-21T02:35:45.730Z,19.53
2022-10-21T02:38:23.552Z,19.17
2022-10-21T02:40:56.064Z,21.67
2022-10-21T02:43:31.714Z,23.30
2022-10-21T02:46:02.706Z,20.27
2022-10-21T02:48:35.575Z,22.97
2022-10-21T02:51:06.206Z,23.30
2022-10-21T02:53:35.172Z,20.63
2022-10-21T02:56:04.190Z,20.73
2022-10-21T02:58:33.168Z,20.20
2022-10-21T03:01:02.127Z,19.87
2022-10-21T03:03:30.996Z,19.23
2022-10-21T03:06:01.116Z,20.00
2022-10-21T03:08:29.820Z,21.93
2022-10-21T03:10:58.670Z,19.53
2022-10-21T03:13:27.326Z,24.57
2022-10-21T03:15:55.991Z,22.20
2022-10-21T03:18:24.511Z,19.80
2022-10-21T03:20:53.601Z,20.63
2022-10-21T03:23:23.563Z,17.90
2022-10-21T03:25:52.189Z,22.70
2022-10-21T03:28:20.856Z,19.43
2022-10-21T03:30:49.456Z,20.03
2022-10-21T03:33:19.000Z,20.10
2022-10-21T03:35:47.595Z,19.73
2022-10-21T03:38:16.153Z,19.77
2022-10-21T03:40:46.089Z,21.23
2022-10-21T03:43:14.667Z,22.80
2022-10-21T03:45:46.205Z,22.07
2022-10-21T03:48:14.947Z,21.77
2022-10-21T03:50:44.027Z,20.93
2022-10-21T03:53:24.291Z,22.60
2022-10-21T03:56:02.639Z,19.87
2022-10-21T03:58:31.215Z,23.23
2022-10-21T04:00:59.764Z,20.90
2022-10-21T04:03:28.818Z,22.03
2022-10-21T04:05:57.673Z,23.87
2022-10-21T04:08:26.341Z,18.20
2022-10-21T04:13:26.235Z,19.63
2022-10-21T04:15:59.397Z,21.60
2022-10-21T04:18:28.263Z,23.10
2022-10-21T04:20:57.088Z,18.63
2022-10-21T04:23:25.957Z,27.27
2022-10-21T04:25:54.758Z,21.13
2022-10-21T04:28:23.298Z,16.53
2022-10-21T04:30:53.517Z,19.60
2022-10-21T04:33:22.113Z,23.67
2022-10-21T04:35:50.797Z,19.57
2022-10-21T04:38:19.301Z,17.83
2022-10-21T04:40:47.818Z,18.33
2022-10-21T04:43:16.342Z,21.47
2022-10-21T04:45:44.876Z,20.27
2022-10-21T04:48:15.258Z,19.03
2022-10-21T04:50:44.108Z,20.73
2022-10-21T04:53:13.510Z,20.27
2022-10-21T04:55:42.356Z,21.40
2022-10-21T04:58:11.267Z,18.40
2022-10-21T05:00:39.871Z,23.33
2022-10-21T05:03:08.505Z,24.17
2022-10-21T05:05:38.415Z,20.70
2022-10-21T05:08:11.437Z,25.27
2022-10-21T05:10:41.199Z,18.80
2022-10-21T05:13:09.804Z,24.60
2022-10-21T05:15:38.471Z,23.23
2022-10-21T05:18:07.091Z,20.03
2022-10-21T05:20:35.723Z,21.17
2022-10-21T05:23:05.719Z,23.27
2022-10-21T05:25:34.674Z,27.97
2022-10-21T05:28:03.323Z,28.63
2022-10-21T05:30:32.083Z,32.43
2022-10-21T05:33:00.677Z,20.83
2022-10-21T05:35:29.329Z,30.80
2022-10-21T05:37:57.931Z,25.90
2022-10-21T05:40:28.291Z,23.60
2022-10-21T05:42:57.108Z,21.10
2022-10-21T05:45:27.068Z,18.00
2022-10-21T05:47:56.903Z,21.77
2022-10-21T05:50:25.608Z,21.43
2022-10-21T05:52:58.586Z,15.90
2022-10-21T05:55:31.692Z,20.43
2022-10-21T05:58:00.281Z,17.00
2022-10-21T06:00:29.053Z,17.23
2022-10-21T06:03:00.712Z,18.63
2022-10-21T06:05:29.819Z,19.03
2022-10-21T06:07:58.573Z,17.07
2022-10-21T06:10:29.265Z,18.00
2022-10-21T06:13:00.426Z,19.90
2022-10-21T06:15:29.009Z,19.77
2022-10-21T06:17:57.795Z,18.67
2022-10-21T06:20:30.822Z,16.30
2022-10-21T06:23:00.805Z,17.83
2022-10-21T06:25:29.797Z,17.13
2022-10-21T06:28:00.818Z,17.57
2022-10-21T06:30:29.490Z,15.17
2022-10-21T06:32:58.103Z,18.70
2022-10-21T06:35:29.806Z,18.73
2022-10-21T06:37:58.385Z,17.63
2022-10-21T06:40:27.306Z,15.67
2022-10-21T06:42:55.916Z,17.17
2022-10-21T06:45:25.991Z,18.23
2022-10-21T06:47:54.632Z,16.83
2022-10-21T06:50:23.244Z,19.50
2022-10-21T06:52:51.825Z,18.30
2022-10-21T06:55:20.487Z,16.53
2022-10-21T06:57:49.163Z,15.30
2022-10-21T07:00:18.076Z,15.60
2022-10-21T07:02:48.175Z,17.37
2022-10-21T07:05:16.879Z,17.90
2022-10-21T07:07:45.447Z,19.53
2022-10-21T07:10:14.075Z,19.17
2022-10-21T07:12:46.796Z,15.10
2022-10-21T07:15:15.878Z,14.90
2022-10-21T07:17:44.642Z,19.33
2022-10-21T07:20:15.356Z,15.60
2022-10-21T07:22:43.903Z,20.10
2022-10-21T07:25:13.835Z,19.57
2022-10-21T07:27:45.988Z,18.20
2022-10-21T07:30:17.041Z,17.87
2022-10-21T07:32:45.583Z,17.67
2022-10-21T07:35:15.635Z,17.87
2022-10-21T07:37:44.229Z,17.27
2022-10-21T07:40:13.730Z,18.60
2022-10-21T07:42:44.730Z,19.27
2022-10-21T07:45:13.862Z,19.47
2022-10-21T07:47:45.327Z,18.93
2022-10-21T07:50:15.724Z,17.23
2022-10-21T07:52:54.680Z,19.33
2022-10-21T07:55:29.778Z,16.33
2022-10-21T07:57:59.402Z,17.87
2022-10-21T08:00:28.256Z,18.57
2022-10-21T08:02:57.527Z,15.27
2022-10-21T08:05:28.945Z,18.07
2022-10-21T08:07:58.927Z,18.63
2022-10-21T08:10:27.780Z,18.57
2022-10-21T08:12:56.403Z,20.30
2022-10-21T08:15:28.070Z,19.13
2022-10-21T08:17:58.819Z,17.13
2022-10-21T08:20:29.053Z,18.80
2022-10-21T08:22:57.709Z,19.17
2022-10-21T08:25:30.087Z,19.10
2022-10-21T08:27:58.755Z,16.60
2022-10-21T08:30:29.926Z,18.00
2022-10-21T08:32:59.551Z,17.57
2022-10-21T08:35:30.327Z,19.00
2022-10-21T08:37:59.039Z,18.53
2022-10-21T08:40:30.921Z,17.43
2022-10-21T08:43:09.966Z,18.27
2022-10-21T08:45:45.091Z,18.27
2022-10-21T08:48:17.629Z,18.77
2022-10-21T08:50:50.373Z,21.30
2022-10-21T08:53:23.538Z,18.13
2022-10-21T08:55:57.711Z,18.57
2022-10-21T08:58:26.558Z,19.30
2022-10-21T09:01:00.195Z,16.93
2022-10-21T09:03:33.579Z,17.30
2022-10-21T09:06:17.056Z,17.60
2022-10-21T09:08:57.564Z,16.63
2022-10-21T09:11:34.963Z,18.50
2022-10-21T09:14:34.049Z,16.63
2022-10-21T09:17:13.377Z,17.73
2022-10-21T09:19:50.767Z,18.73
2022-10-21T09:22:39.433Z,17.30
2022-10-21T09:25:19.909Z,17.43
2022-10-21T09:27:56.079Z,17.40
2022-10-21T09:30:27.395Z,17.40
2022-10-21T09:32:59.613Z,17.30
2022-10-21T09:35:37.689Z,17.83
2022-10-21T09:38:15.347Z,17.30
2022-10-21T09:40:49.083Z,16.83
2022-10-21T09:43:21.913Z,16.97
2022-10-21T09:45:50.805Z,17.77
2022-10-21T09:48:32.451Z,18.97
2022-10-21T09:51:12.174Z,17.70
2022-10-21T09:53:53.771Z,18.37
2022-10-21T09:56:27.897Z,17.40
2022-10-21T09:59:07.794Z,20.13
2022-10-21T10:01:41.618Z,18.40
2022-10-21T10:04:14.628Z,17.83
2022-10-21T10:06:45.123Z,18.17
2022-10-21T10:09:26.727Z,17.13
2022-10-21T10:11:57.942Z,18.60
2022-10-21T10:14:33.319Z,18.47
2022-10-21T10:17:30.815Z,17.93
2022-10-21T10:20:17.753Z,18.00
2022-10-21T10:22:48.001Z,18.33
2022-10-21T10:25:24.450Z,17.67
2022-10-21T10:27:56.492Z,18.47
2022-10-21T10:30:28.002Z,18.53
2022-10-21T10:32:58.110Z,18.03
2022-10-21T10:35:31.543Z,17.97
2022-10-21T10:38:02.600Z,18.03
2022-10-21T10:40:39.709Z,18.30
2022-10-21T10:43:16.381Z,18.00
2022-10-21T10:45:54.231Z,18.43
2022-10-21T10:48:27.459Z,17.17
2022-10-21T10:50:57.286Z,17.77
2022-10-21T10:53:34.308Z,18.03
2022-10-21T10:56:15.354Z,17.13
2022-10-21T10:58:49.093Z,17.47
2022-10-21T11:01:26.276Z,17.07
2022-10-21T11:03:59.395Z,18.13
2022-10-21T11:06:38.504Z,17.23
2022-10-21T11:09:09.167Z,19.47
2022-10-21T11:11:44.643Z,17.20
2022-10-21T11:14:18.879Z,16.87
2022-10-21T11:17:11.883Z,20.83
2022-10-21T11:19:53.847Z,19.07
2022-10-21T11:22:33.373Z,17.03
2022-10-21T11:25:14.981Z,17.03
2022-10-21T11:28:06.502Z,18.33
2022-10-21T11:30:46.896Z,17.17
2022-10-21T11:33:24.322Z,16.73
2022-10-21T11:36:03.274Z,17.20
2022-10-21T11:38:50.331Z,18.63
2022-10-21T11:41:29.527Z,16.93
2022-10-21T11:44:09.992Z,17.73
2022-10-21T11:46:46.979Z,16.70
2022-10-21T11:49:36.393Z,16.47
2022-10-21T11:52:15.334Z,16.67
2022-10-21T11:55:10.090Z,17.13
2022-10-21T11:57:49.574Z,16.80
2022-10-21T12:00:22.100Z,17.97
2022-10-21T12:03:14.598Z,18.43
2022-10-21T12:05:55.356Z,18.07
2022-10-21T12:08:28.211Z,19.80
2022-10-21T12:11:00.956Z,18.43
2022-10-21T12:13:32.187Z,18.40
2022-10-21T12:16:07.469Z,20.53
2022-10-21T12:18:42.337Z,17.70
2022-10-21T12:21:16.849Z,17.70
2022-10-21T12:23:46.363Z,18.83
2022-10-21T12:26:22.653Z,19.13
2022-10-21T12:28:59.875Z,19.17
2022-10-21T12:31:45.536Z,17.67
2022-10-21T12:34:15.216Z,18.07
2022-10-21T12:36:48.847Z,18.83
2022-10-21T12:39:39.106Z,17.70
2022-10-21T12:42:13.144Z,17.50
2022-10-21T12:44:46.915Z,17.80
2022-10-21T12:47:32.279Z,18.37
2022-10-21T12:50:18.709Z,17.03
2022-10-21T12:52:48.365Z,18.53
2022-10-21T12:55:22.970Z,16.80
2022-10-21T12:58:00.727Z,18.33
2022-10-21T13:00:55.305Z,17.20
2022-10-21T13:03:56.471Z,16.27
2022-10-21T13:06:49.685Z,17.40
2022-10-21T13:09:39.823Z,17.23
2022-10-21T13:12:18.762Z,16.40
2022-10-21T13:14:48.942Z,19.80
2022-10-21T13:17:33.921Z,16.60
2022-10-21T13:20:42.359Z,17.87
2022-10-21T13:23:43.160Z,17.83
2022-10-21T13:26:24.253Z,17.30
2022-10-21T13:29:16.532Z,18.33
2022-10-21T13:31:45.448Z,17.77
2022-10-21T13:34:29.560Z,20.63
2022-10-21T13:36:59.194Z,18.30
2022-10-21T13:39:31.252Z,18.37
2022-10-21T13:42:04.782Z,19.10
2022-10-21T13:44:37.840Z,17.97
2022-10-21T13:47:30.189Z,16.73
2022-10-21T13:50:06.860Z,18.17
2022-10-21T13:52:35.380Z,16.90
2022-10-21T13:55:06.101Z,18.07
2022-10-21T13:57:37.518Z,16.70
2022-10-21T14:00:09.204Z,17.50
2022-10-21T14:02:37.772Z,17.47
2022-10-21T14:05:06.789Z,18.30
2022-10-21T14:07:35.496Z,16.83
2022-10-21T14:10:07.456Z,16.60
2022-10-21T14:12:41.926Z,16.70
2022-10-21T14:15:18.084Z,17.60
2022-10-21T14:17:51.836Z,17.90
2022-10-21T14:20:28.560Z,17.97
2022-10-21T14:22:57.454Z,19.60
2022-10-21T14:25:26.209Z,17.03
2022-10-21T14:27:56.223Z,17.17
2022-10-21T14:30:27.296Z,17.73
2022-10-21T14:32:58.258Z,19.37
2022-10-21T14:35:29.994Z,18.63
2022-10-21T14:38:02.644Z,17.90
2022-10-21T14:40:33.049Z,16.90
2022-10-21T14:43:05.302Z,18.67
2022-10-21T14:45:35.324Z,17.17
2022-10-21T14:48:10.201Z,17.57
2022-10-21T14:50:41.485Z,17.07
2022-10-21T14:53:17.872Z,16.47
2022-10-21T14:55:49.143Z,18.73
2022-10-21T14:58:24.060Z,17.70
2022-10-21T15:00:57.289Z,18.10
2022-10-21T15:03:40.055Z,18.10
2022-10-21T15:06:11.579Z,17.33
2022-10-21T15:08:42.984Z,18.00
2022-10-21T15:11:23.790Z,17.53
2022-10-21T15:14:06.962Z,17.63
2022-10-21T15:19:11.667Z,15.90
2022-10-21T15:21:47.423Z,16.77
2022-10-21T15:24:20.355Z,16.17
2022-10-21T15:26:50.890Z,17.73
2022-10-21T15:29:36.155Z,15.73
2022-10-21T15:32:05.857Z,18.30
2022-10-21T15:34:34.501Z,16.73
2022-10-21T15:37:03.208Z,17.70
2022-10-21T15:39:32.040Z,17.23
2022-10-21T15:42:01.668Z,16.67
2022-10-21T15:44:32.976Z,18.20
2022-10-21T15:47:05.663Z,19.17
2022-10-21T15:49:36.471Z,15.30
2022-10-21T15:52:05.820Z,17.83
2022-10-21T15:54:34.827Z,29.53
2022-10-21T15:57:08.904Z,29.43
2022-10-21T15:59:39.060Z,19.57
2022-10-21T16:02:15.442Z,19.53
2022-10-21T16:04:45.889Z,15.00
2022-10-21T16:07:20.999Z,16.27
2022-10-21T16:09:49.730Z,16.13
2022-10-21T16:12:20.732Z,15.87
2022-10-21T16:14:50.875Z,15.37
2022-10-21T16:17:19.822Z,16.57
2022-10-21T16:19:48.417Z,17.10
2022-10-21T16:22:21.558Z,14.83
2022-10-21T16:24:50.248Z,15.50
2022-10-21T16:27:31.374Z,16.93
2022-10-21T16:30:18.794Z,17.30
2022-10-21T16:32:48.109Z,15.50
2022-10-21T16:35:18.422Z,17.43
2022-10-21T16:37:47.603Z,14.90
2022-10-21T16:40:21.384Z,15.47
2022-10-21T16:42:51.323Z,17.53
2022-10-21T16:45:23.087Z,15.53
2022-10-21T16:47:56.713Z,17.20
2022-10-21T16:50:33.099Z,16.30
2022-10-21T16:53:02.249Z,18.30
2022-10-21T16:55:31.027Z,16.37
2022-10-21T16:57:59.869Z,16.37
2022-10-21T17:00:29.888Z,16.60
2022-10-21T17:02:59.107Z,16.53
2022-10-21T17:05:27.984Z,16.87
2022-10-21T17:07:57.127Z,16.57
2022-10-21T17:10:25.827Z,14.87
2022-10-21T17:12:58.923Z,17.00
2022-10-21T17:15:29.811Z,15.20
2022-10-21T17:17:59.295Z,16.37
2022-10-21T17:20:30.398Z,15.77
2022-10-21T17:22:59.681Z,16.87
2022-10-21T17:25:29.208Z,19.25
2022-10-21T17:27:58.258Z,17.73
2022-10-21T17:30:26.925Z,17.23
2022-10-21T17:32:56.990Z,17.63
2022-10-21T17:35:25.671Z,16.23
2022-10-21T17:37:54.676Z,17.10
2022-10-21T17:40:25.680Z,16.63
2022-10-21T17:42:54.512Z,17.77
2022-10-21T17:45:23.717Z,14.80
2022-10-21T17:47:52.941Z,16.80
2022-10-21T17:50:25.833Z,17.97
2022-10-21T17:52:55.719Z,15.93
2022-10-21T17:55:24.756Z,16.40
2022-10-21T17:57:53.370Z,17.98
2022-10-21T18:00:22.095Z,15.90
2022-10-21T18:02:50.736Z,14.87
2022-10-21T18:05:19.464Z,15.67
2022-10-21T18:07:49.480Z,14.23
2022-10-21T18:10:18.155Z,16.07
2022-10-21T18:12:46.793Z,16.40
2022-10-21T18:15:15.455Z,15.90
2022-10-21T18:17:44.310Z,14.37
2022-10-21T18:20:15.644Z,18.83
2022-10-21T18:22:44.201Z,16.03
2022-10-21T18:25:15.460Z,17.37
2022-10-21T18:30:17.573Z,19.70
2022-10-21T18:32:46.217Z,17.80
2022-10-21T18:35:15.027Z,20.07
2022-10-21T18:37:44.258Z,19.00
2022-10-21T18:40:14.883Z,17.93
2022-10-21T18:42:45.957Z,19.97
2022-10-21T18:45:14.621Z,20.77
2022-10-21T18:47:47.337Z,19.87
2022-10-21T18:50:16.233Z,21.27
2022-10-21T18:52:44.842Z,21.57
2022-10-21T18:55:15.480Z,21.00
2022-10-21T18:57:44.089Z,17.63
2022-10-21T19:00:13.828Z,18.93
2022-10-21T19:02:42.541Z,21.00
2022-10-21T19:05:11.531Z,20.30
2022-10-21T19:07:40.423Z,18.90
2022-10-21T19:10:09.863Z,18.97
2022-10-21T19:12:39.793Z,18.00
2022-10-21T19:15:09.297Z,23.33
2022-10-21T19:17:41.594Z,20.90
2022-10-21T19:20:11.508Z,21.37
2022-10-21T19:22:40.388Z,19.20
2022-10-21T19:25:09.906Z,21.10
2022-10-21T19:27:40.120Z,20.57
2022-10-21T19:30:11.009Z,19.03
2022-10-21T19:32:39.752Z,18.23
2022-10-21T19:35:09.058Z,19.00
2022-10-21T19:37:37.676Z,18.00
2022-10-21T19:40:07.187Z,18.13
2022-10-21T19:42:35.828Z,17.30
2022-10-21T19:45:06.693Z,18.37
2022-10-21T19:47:35.294Z,14.73
2022-10-21T19:50:04.038Z,17.77
2022-10-21T19:52:32.661Z,17.47
2022-10-21T19:55:01.366Z,17.90
2022-10-21T19:57:29.926Z,16.03
2022-10-21T19:59:58.698Z,16.23
2022-10-21T20:02:28.707Z,16.27
2022-10-21T20:04:57.322Z,16.23
2022-10-21T20:07:26.015Z,14.83
2022-10-21T20:09:54.798Z,15.97
2022-10-21T20:12:23.393Z,13.73
2022-10-21T20:14:52.070Z,14.33
2022-10-21T20:17:20.740Z,14.87
2022-10-21T20:19:51.259Z,15.37
2022-10-21T20:22:19.829Z,14.67
2022-10-21T20:24:48.668Z,12.97
2022-10-21T20:27:17.256Z,14.83
2022-10-21T20:29:45.867Z,14.60
2022-10-21T20:32:14.573Z,13.57
2022-10-21T20:34:44.230Z,13.63
2022-10-21T20:37:14.191Z,13.43
2022-10-21T20:39:43.381Z,13.37
2022-10-21T20:42:12.136Z,14.17
2022-10-21T20:44:41.047Z,13.50
2022-10-21T20:47:09.674Z,14.10
2022-10-21T20:49:38.312Z,13.33
2022-10-21T20:52:06.939Z,13.77
2022-10-21T20:54:37.079Z,13.60
2022-10-21T20:57:05.765Z,14.40
2022-10-21T20:59:34.558Z,13.60
2022-10-21T21:02:03.264Z,16.20
2022-10-21T21:04:31.776Z,14.77
2022-10-21T21:07:00.388Z,14.77
2022-10-21T21:10:02.340Z,13.73
2022-10-21T21:12:19.190Z,18.37
2022-10-21T21:14:47.903Z,21.77
2022-10-21T21:17:16.505Z,16.87
2022-10-21T21:19:45.178Z,16.43
2022-10-21T21:22:13.973Z,16.60
2022-10-21T21:24:45.292Z,14.63
2022-10-21T21:27:14.222Z,15.20
2022-10-21T21:29:44.148Z,15.70
2022-10-21T21:32:15.689Z,13.23
2022-10-21T21:34:44.404Z,13.53
2022-10-21T21:37:13.331Z,13.67
2022-10-21T21:39:44.589Z,12.17
2022-10-21T21:42:13.784Z,15.30
2022-10-21T21:44:43.918Z,15.23
2022-10-21T21:47:13.239Z,13.50
2022-10-21T21:49:42.136Z,12.77
2022-10-21T21:52:10.907Z,14.10
2022-10-21T21:54:39.752Z,12.47
2022-10-21T21:57:27.884Z,14.10
2022-10-21T21:59:58.502Z,14.00
2022-10-21T22:02:27.211Z,12.37
2022-10-21T22:04:55.955Z,11.77
2022-10-21T22:07:24.758Z,12.87
2022-10-21T22:09:53.373Z,13.00
2022-10-21T22:12:23.201Z,15.47
2022-10-21T22:14:54.702Z,15.27
2022-10-21T22:17:24.871Z,13.70
2022-10-21T22:19:54.063Z,13.83
2022-10-21T22:22:22.753Z,12.20
2022-10-21T22:24:51.661Z,13.93
2022-10-21T22:27:20.417Z,15.30
2022-10-21T22:29:48.981Z,13.10
2022-10-21T22:32:18.090Z,14.40
2022-10-21T22:34:48.035Z,13.23
2022-10-21T22:37:16.577Z,16.27
2022-10-21T22:39:45.215Z,12.60
2022-10-21T22:42:16.538Z,13.33
2022-10-21T22:44:45.103Z,13.33
2022-10-21T22:47:16.408Z,13.77
2022-10-21T22:49:45.008Z,12.77
2022-10-21T22:52:15.524Z,13.27
2022-10-21T22:54:49.395Z,13.10
2022-10-21T22:57:18.319Z,13.53
2022-10-21T22:59:52.135Z,11.83
2022-10-21T23:02:22.187Z,13.43
2022-10-21T23:04:52.565Z,13.00
2022-10-21T23:07:22.872Z,13.47
2022-10-21T23:09:52.394Z,12.80
2022-10-21T23:12:21.078Z,13.20
2022-10-21T23:14:49.889Z,12.73
2022-10-21T23:17:18.443Z,14.27
2022-10-21T23:19:47.320Z,14.70
2022-10-21T23:22:15.885Z,14.77
2022-10-21T23:24:46.292Z,13.30
2022-10-21T23:27:14.935Z,14.40
2022-10-21T23:29:44.088Z,11.67
2022-10-21T23:32:12.669Z,12.63
2022-10-21T23:34:42.168Z,14.43
2022-10-21T23:37:11.100Z,13.70
2022-10-21T23:39:39.654Z,13.10
2022-10-21T23:42:09.646Z,12.83
2022-10-21T23:44:38.240Z,11.57
2022-10-21T23:47:07.087Z,13.73
2022-10-21T23:49:35.639Z,11.60
2022-10-21T23:52:06.182Z,11.33
2022-10-21T23:54:34.924Z,12.20
2022-10-21T23:57:03.512Z,13.30
2022-10-21T23:59:34.407Z,13.77
